createdAt,value
2023-03-24T00:00:21.460Z,72712.16
2023-03-24T00:01:02.300Z,72708.19
2023-03-24T00:01:34.778Z,72706.19
2023-03-24T00:02:07.843Z,72706.19
2023-03-24T00:02:45.593Z,72710.16
2023-03-24T00:03:18.315Z,72714.16
2023-03-24T00:03:52.645Z,72712.16
2023-03-24T00:04:28.634Z,72714.16
2023-03-24T00:05:01.098Z,72710.16
2023-03-24T00:05:33.606Z,72714.16
2023-03-24T00:06:10.159Z,72714.16
2023-03-24T00:06:43.691Z,72716.16
2023-03-24T00:07:16.562Z,72718.16
2023-03-24T00:07:54.863Z,72716.16
2023-03-24T00:08:30.848Z,72714.16
2023-03-24T00:09:04.289Z,72714.16
2023-03-24T00:09:39.614Z,72716.16
2023-03-24T00:10:15.165Z,72710.16
2023-03-24T00:10:48.761Z,72706.19
2023-03-24T00:11:25.669Z,72714.16
2023-03-24T00:11:58.602Z,72714.16
2023-03-24T00:12:31.073Z,72710.16
2023-03-24T00:13:06.659Z,72714.16
2023-03-24T00:13:40.036Z,72710.16
2023-03-24T00:14:15.154Z,72712.16
2023-03-24T00:14:50.286Z,72710.16
2023-03-24T00:15:24.258Z,72712.16
2023-03-24T00:15:56.911Z,72714.16
2023-03-24T00:16:34.915Z,72714.16
2023-03-24T00:17:10.191Z,72716.16
2023-03-24T00:17:42.814Z,72712.16
2023-03-24T00:18:18.632Z,72710.16
2023-03-24T00:18:54.382Z,72712.16
2023-03-24T00:19:29.610Z,72710.16
2023-03-24T00:20:02.258Z,72708.19
2023-03-24T00:20:35.216Z,72712.16
2023-03-24T00:21:13.724Z,72710.16
2023-03-24T00:21:46.606Z,72712.16
2023-03-24T00:22:21.503Z,72710.16
2023-03-24T00:22:59.560Z,72706.19
2023-03-24T00:23:32.788Z,72706.19
2023-03-24T00:24:07.952Z,72706.19
2023-03-24T00:24:46.618Z,72708.19
2023-03-24T00:25:21.049Z,72706.19
2023-03-24T00:26:02.852Z,72706.19
2023-03-24T00:26:39.039Z,72700.19
2023-03-24T00:27:13.847Z,72702.19
2023-03-24T00:27:49.102Z,72706.19
2023-03-24T00:28:24.432Z,72702.19
2023-03-24T00:28:58.160Z,72706.19
2023-03-24T00:29:36.436Z,72708.19
2023-03-24T00:30:11.613Z,72706.19
2023-03-24T00:30:51.986Z,72706.19
2023-03-24T00:31:27.477Z,72704.19
2023-03-24T00:32:00.333Z,72706.19
2023-03-24T00:32:32.918Z,72710.16
2023-03-24T00:33:08.204Z,72706.19
2023-03-24T00:33:41.586Z,72706.19
2023-03-24T00:34:14.205Z,72706.19
2023-03-24T00:34:49.648Z,72706.19
2023-03-24T00:35:22.685Z,72704.19
2023-03-24T00:35:55.232Z,72706.19
2023-03-24T00:36:30.739Z,72712.16
2023-03-24T00:37:03.236Z,72706.19
2023-03-24T00:37:37.699Z,72706.19
2023-03-24T00:38:12.806Z,72706.19
2023-03-24T00:38:45.321Z,72708.19
2023-03-24T00:39:21.233Z,72706.19
2023-03-24T00:39:54.309Z,72702.19
2023-03-24T00:40:28.098Z,72698.19
2023-03-24T00:41:03.915Z,72698.19
2023-03-24T00:41:36.492Z,72694.19
2023-03-24T00:42:09.330Z,72694.19
2023-03-24T00:42:46.281Z,72698.19
2023-03-24T00:43:19.344Z,72694.19
2023-03-24T00:43:51.992Z,72694.19
2023-03-24T00:44:27.319Z,72690.22
2023-03-24T00:45:04.208Z,72690.22
2023-03-24T00:45:36.800Z,72686.22
2023-03-24T00:46:28.742Z,72686.22
2023-03-24T00:47:02.408Z,72682.22
2023-03-24T00:47:36.991Z,72684.22
2023-03-24T00:48:12.495Z,72686.22
2023-03-24T00:48:44.982Z,72692.22
2023-03-24T00:49:17.460Z,72694.19
2023-03-24T00:49:54.012Z,72696.19
2023-03-24T00:50:27.582Z,72696.19
2023-03-24T00:51:03.122Z,72686.22
2023-03-24T00:51:40.201Z,72690.22
2023-03-24T00:52:14.648Z,72694.19
2023-03-24T00:52:49.396Z,72690.22
2023-03-24T00:53:23.535Z,72692.22
2023-03-24T00:53:59.593Z,72696.19
2023-03-24T00:54:32.313Z,72698.19
2023-03-24T00:55:07.063Z,72686.22
2023-03-24T00:55:43.179Z,72690.22
2023-03-24T00:56:15.853Z,72690.22
2023-03-24T00:56:56.150Z,72698.19
2023-03-24T00:57:30.227Z,72688.22
2023-03-24T00:58:02.855Z,72698.19
2023-03-24T00:58:38.117Z,72688.22
2023-03-24T00:59:14.045Z,72690.22
2023-03-24T00:59:49.197Z,72688.22
2023-03-24T01:00:28.862Z,72686.22
2023-03-24T01:01:01.465Z,72692.22
2023-03-24T01:01:36.773Z,72694.19
2023-03-24T01:02:13.854Z,72690.22
2023-03-24T01:02:48.190Z,72690.22
2023-03-24T01:03:22.342Z,72696.19
2023-03-24T01:03:57.759Z,72698.19
2023-03-24T01:04:30.881Z,72700.19
2023-03-24T01:05:03.991Z,72698.19
2023-03-24T01:05:39.297Z,72694.19
2023-03-24T01:06:11.817Z,72698.19
2023-03-24T01:06:45.143Z,72702.19
2023-03-24T01:07:20.573Z,72704.19
2023-03-24T01:07:53.035Z,72710.16
2023-03-24T01:08:25.999Z,72714.16
2023-03-24T01:09:03.203Z,72720.16
2023-03-24T01:09:36.537Z,72730.13
2023-03-24T01:10:13.258Z,72726.13
2023-03-24T01:10:53.506Z,72726.13
2023-03-24T01:11:27.319Z,72726.13
2023-03-24T01:11:59.807Z,72722.16
2023-03-24T01:12:38.223Z,72710.16
2023-03-24T01:13:10.750Z,72714.16
2023-03-24T01:13:43.602Z,72718.16
2023-03-24T01:14:19.030Z,72718.16
2023-03-24T01:14:52.418Z,72718.16
2023-03-24T01:15:29.840Z,72714.16
2023-03-24T01:16:06.924Z,72716.16
2023-03-24T01:16:39.538Z,72710.16
2023-03-24T01:17:12.572Z,72710.16
2023-03-24T01:17:48.970Z,72708.19
2023-03-24T01:18:23.936Z,72708.19
2023-03-24T01:18:56.451Z,72708.19
2023-03-24T01:19:33.286Z,72710.16
2023-03-24T01:20:08.399Z,72710.16
2023-03-24T01:20:41.240Z,72706.19
2023-03-24T01:21:16.827Z,72710.16
2023-03-24T01:21:51.166Z,72716.16
2023-03-24T01:22:28.070Z,72710.16
2023-03-24T01:23:06.038Z,72704.19
2023-03-24T01:23:39.163Z,72706.19
2023-03-24T01:24:14.260Z,72706.19
2023-03-24T01:24:46.994Z,72702.19
2023-03-24T01:25:21.301Z,72700.19
2023-03-24T01:25:57.317Z,72710.16
2023-03-24T01:26:29.855Z,72706.19
2023-03-24T01:27:02.426Z,72706.19
2023-03-24T01:27:37.680Z,72708.19
2023-03-24T01:28:10.191Z,72704.19
2023-03-24T01:28:45.278Z,72706.19
2023-03-24T01:29:17.763Z,72706.19
2023-03-24T01:29:52.838Z,72706.19
2023-03-24T01:30:29.620Z,72694.19
2023-03-24T01:31:02.143Z,72698.19
2023-03-24T01:31:37.292Z,72702.19
2023-03-24T01:32:09.954Z,72696.19
2023-03-24T01:32:42.564Z,72704.19
2023-03-24T01:33:17.680Z,72702.19
2023-03-24T01:33:50.184Z,72708.19
2023-03-24T01:34:22.711Z,72706.19
2023-03-24T01:34:57.927Z,72702.19
2023-03-24T01:35:30.639Z,72700.19
2023-03-24T01:36:03.394Z,72704.19
2023-03-24T01:36:38.495Z,72708.19
2023-03-24T01:37:10.996Z,72708.19
2023-03-24T01:37:44.011Z,72706.19
2023-03-24T01:38:19.209Z,72702.19
2023-03-24T01:38:51.710Z,72704.19
2023-03-24T01:39:25.271Z,72710.16
2023-03-24T01:40:00.361Z,72708.19
2023-03-24T01:40:34.436Z,72706.19
2023-03-24T01:41:10.925Z,72706.19
2023-03-24T01:41:43.627Z,72704.19
2023-03-24T01:42:18.642Z,72702.19
2023-03-24T01:42:51.542Z,72702.19
2023-03-24T01:43:31.429Z,72698.19
2023-03-24T01:44:25.973Z,72694.19
2023-03-24T01:45:01.590Z,72698.19
2023-03-24T01:45:46.024Z,72704.19
2023-03-24T01:46:22.421Z,72702.19
2023-03-24T01:46:56.834Z,72702.19
2023-03-24T01:47:29.354Z,72702.19
2023-03-24T01:48:02.014Z,72702.19
2023-03-24T01:48:41.698Z,72698.19
2023-03-24T01:49:14.254Z,72698.19
2023-03-24T01:49:50.940Z,72700.19
2023-03-24T01:50:26.566Z,72694.19
2023-03-24T01:51:01.670Z,72690.22
2023-03-24T01:51:36.014Z,72700.19
2023-03-24T01:52:13.994Z,72698.19
2023-03-24T01:52:46.531Z,72704.19
2023-03-24T01:53:19.166Z,72702.19
2023-03-24T01:53:59.094Z,72702.19
2023-03-24T01:54:34.878Z,72700.19
2023-03-24T01:55:12.956Z,72692.22
2023-03-24T01:55:50.370Z,72694.19
2023-03-24T01:56:27.534Z,72698.19
2023-03-24T01:57:07.336Z,72698.19
2023-03-24T01:57:46.273Z,72690.22
2023-03-24T01:58:19.053Z,72692.22
2023-03-24T01:59:11.790Z,72694.19
2023-03-24T02:00:18.567Z,72686.22
2023-03-24T02:01:22.482Z,72684.22
2023-03-24T02:02:16.710Z,72686.22
2023-03-24T02:03:00.560Z,72684.22
2023-03-24T02:03:40.391Z,72682.22
2023-03-24T02:04:14.181Z,72684.22
2023-03-24T02:04:54.332Z,72680.22
2023-03-24T02:05:31.179Z,72684.22
2023-03-24T02:06:04.034Z,72680.22
2023-03-24T02:06:41.613Z,72672.25
2023-03-24T02:07:18.354Z,72678.22
2023-03-24T02:07:54.192Z,72678.22
2023-03-24T02:08:36.271Z,72674.25
2023-03-24T02:09:09.909Z,72666.25
2023-03-24T02:09:42.415Z,72674.25
2023-03-24T02:10:19.905Z,72664.25
2023-03-24T02:10:52.722Z,72666.25
2023-03-24T02:11:27.742Z,72662.28
2023-03-24T02:12:07.595Z,72662.28
2023-03-24T02:12:41.825Z,72662.28
2023-03-24T02:13:15.184Z,72666.25
2023-03-24T02:13:50.348Z,72662.28
2023-03-24T02:14:23.627Z,72664.25
2023-03-24T02:14:56.550Z,72658.28
2023-03-24T02:15:33.566Z,72658.28
2023-03-24T02:16:16.479Z,72656.28
2023-03-24T02:17:17.654Z,72658.28
2023-03-24T02:17:57.391Z,72654.28
2023-03-24T02:18:38.028Z,72646.31
2023-03-24T02:19:38.385Z,72654.28
2023-03-24T02:20:32.612Z,72646.31
2023-03-24T02:21:25.972Z,72654.28
2023-03-24T02:22:14.992Z,72646.31
2023-03-24T02:23:22.068Z,72646.31
2023-03-24T02:24:12.985Z,72648.28
2023-03-24T02:25:14.442Z,72650.28
2023-03-24T02:26:14.163Z,72648.28
2023-03-24T02:26:55.590Z,72646.31
2023-03-24T02:28:04.356Z,72644.31
2023-03-24T02:28:43.804Z,72646.31
2023-03-24T02:29:56.306Z,72640.31
2023-03-24T02:31:00.047Z,72640.31
2023-03-24T02:31:50.614Z,72638.31
2023-03-24T02:32:56.304Z,72642.31
2023-03-24T02:34:19.450Z,72642.31
2023-03-24T02:35:24.211Z,72636.31
2023-03-24T02:36:37.982Z,72634.31
2023-03-24T02:37:36.409Z,72636.31
2023-03-24T02:38:48.973Z,72636.31
2023-03-24T02:39:50.687Z,72638.31
2023-03-24T02:40:34.592Z,72636.31
2023-03-24T02:41:13.278Z,72634.31
2023-03-24T02:41:52.711Z,72634.31
2023-03-24T02:42:36.362Z,72630.34
2023-03-24T02:43:19.901Z,72634.31
2023-03-24T02:43:58.859Z,72634.31
2023-03-24T02:44:40.210Z,72634.31
2023-03-24T02:45:22.758Z,72630.34
2023-03-24T02:46:07.273Z,72630.34
2023-03-24T02:46:45.562Z,72626.34
2023-03-24T02:47:22.095Z,72624.34
2023-03-24T02:48:09.980Z,72622.34
2023-03-24T02:48:49.958Z,72622.34
2023-03-24T02:49:30.447Z,72616.38
2023-03-24T02:50:11.114Z,72620.34
2023-03-24T02:50:51.375Z,72616.38
2023-03-24T02:51:27.717Z,72610.38
2023-03-24T02:52:04.947Z,72606.38
2023-03-24T02:52:43.612Z,72610.38
2023-03-24T02:53:19.613Z,72608.38
2023-03-24T02:54:17.394Z,72610.38
2023-03-24T02:54:58.121Z,72606.38
2023-03-24T02:55:34.699Z,72604.38
2023-03-24T02:56:14.001Z,72602.38
2023-03-24T02:56:50.061Z,72600.41
2023-03-24T02:58:03.093Z,72596.41
2023-03-24T02:58:50.243Z,72600.41
2023-03-24T02:59:29.935Z,72594.41
2023-03-24T03:00:09.809Z,72596.41
2023-03-24T03:01:08.197Z,72596.41
2023-03-24T03:02:07.357Z,72590.41
2023-03-24T03:02:47.271Z,72592.41
2023-03-24T03:03:25.165Z,72590.41
2023-03-24T03:04:02.483Z,72588.41
2023-03-24T03:04:38.276Z,72590.41
2023-03-24T03:05:17.472Z,72590.41
2023-03-24T03:05:53.690Z,72594.41
2023-03-24T03:06:28.813Z,72592.41
2023-03-24T03:07:10.124Z,72590.41
2023-03-24T03:07:44.853Z,72590.41
2023-03-24T03:08:18.439Z,72584.44
2023-03-24T03:08:53.974Z,72586.44
2023-03-24T03:09:28.696Z,72584.44
2023-03-24T03:10:06.514Z,72580.44
2023-03-24T03:10:43.967Z,72578.44
2023-03-24T03:11:17.986Z,72578.44
2023-03-24T03:11:54.709Z,72578.44
2023-03-24T03:12:31.154Z,72574.44
2023-03-24T03:13:08.326Z,72586.44
2023-03-24T03:13:44.048Z,72578.44
2023-03-24T03:14:21.750Z,72582.44
2023-03-24T03:14:56.675Z,72580.44
2023-03-24T03:15:34.375Z,72580.44
2023-03-24T03:16:13.556Z,72580.44
2023-03-24T03:16:48.722Z,72574.44
2023-03-24T03:17:23.603Z,72574.44
2023-03-24T03:18:03.762Z,72580.44
2023-03-24T03:18:40.825Z,72580.44
2023-03-24T03:19:18.234Z,72582.44
2023-03-24T03:19:58.304Z,72580.44
2023-03-24T03:20:34.977Z,72588.41
2023-03-24T03:21:12.923Z,72584.44
2023-03-24T03:21:49.827Z,72582.44
2023-03-24T03:22:25.699Z,72578.44
2023-03-24T03:23:02.421Z,72576.44
2023-03-24T03:23:39.502Z,72580.44
2023-03-24T03:24:15.604Z,72578.44
2023-03-24T03:24:50.728Z,72580.44
2023-03-24T03:25:35.361Z,72576.44
2023-03-24T03:26:12.596Z,72586.44
2023-03-24T03:26:46.647Z,72576.44
2023-03-24T03:27:27.397Z,72578.44
2023-03-24T03:28:02.549Z,72578.44
2023-03-24T03:28:38.394Z,72578.44
2023-03-24T03:29:17.089Z,72578.44
2023-03-24T03:29:54.538Z,72580.44
2023-03-24T03:30:29.531Z,72574.44
2023-03-24T03:31:08.576Z,72570.47
2023-03-24T03:31:42.884Z,72566.47
2023-03-24T03:32:21.919Z,72574.44
2023-03-24T03:33:00.751Z,72578.44
2023-03-24T03:33:37.255Z,72580.44
2023-03-24T03:34:14.568Z,72570.47
2023-03-24T03:34:52.485Z,72574.44
2023-03-24T03:35:30.415Z,72574.44
2023-03-24T03:36:07.779Z,72578.44
2023-03-24T03:36:48.355Z,72574.44
2023-03-24T03:37:26.031Z,72582.44
2023-03-24T03:38:05.559Z,72578.44
2023-03-24T03:38:48.344Z,72578.44
2023-03-24T03:39:24.383Z,72582.44
2023-03-24T03:39:59.473Z,72578.44
2023-03-24T03:40:40.045Z,72578.44
2023-03-24T03:41:23.753Z,72582.44
2023-03-24T03:41:59.282Z,72578.44
2023-03-24T03:42:32.561Z,72582.44
2023-03-24T03:43:05.948Z,72578.44
2023-03-24T03:43:41.307Z,72584.44
2023-03-24T03:44:13.992Z,72584.44
2023-03-24T03:44:46.999Z,72582.44
2023-03-24T03:45:24.103Z,72582.44
2023-03-24T03:45:56.830Z,72582.44
2023-03-24T03:46:35.962Z,72578.44
2023-03-24T03:47:15.302Z,72582.44
2023-03-24T03:47:51.657Z,72586.44
2023-03-24T03:48:26.633Z,72584.44
2023-03-24T03:49:01.797Z,72582.44
2023-03-24T03:49:34.299Z,72586.44
2023-03-24T03:50:09.115Z,72586.44
2023-03-24T03:50:44.311Z,72578.44
2023-03-24T03:51:16.989Z,72578.44
2023-03-24T03:51:58.246Z,72578.44
2023-03-24T03:52:30.835Z,72574.44
2023-03-24T03:53:03.675Z,72580.44
2023-03-24T03:53:42.665Z,72578.44
2023-03-24T03:54:16.906Z,72574.44
2023-03-24T03:54:54.412Z,72572.44
2023-03-24T03:55:27.014Z,72578.44
2023-03-24T03:56:02.421Z,72576.44
2023-03-24T03:56:41.179Z,72574.44
2023-03-24T03:57:23.720Z,72574.44
2023-03-24T03:58:17.283Z,72578.44
2023-03-24T03:58:58.845Z,72574.44
2023-03-24T03:59:34.144Z,72578.44
2023-03-24T04:00:17.120Z,72578.44
2023-03-24T04:01:02.750Z,72580.44
2023-03-24T04:01:43.714Z,72582.44
2023-03-24T04:02:43.250Z,72584.44
2023-03-24T04:03:35.419Z,72590.41
2023-03-24T04:04:30.132Z,72586.44
2023-03-24T04:05:35.074Z,72586.44
2023-03-24T04:06:15.324Z,72586.44
2023-03-24T04:06:57.672Z,72592.41
2023-03-24T04:07:37.127Z,72590.41
2023-03-24T04:08:26.212Z,72590.41
2023-03-24T04:09:07.712Z,72590.41
2023-03-24T04:09:48.571Z,72590.41
2023-03-24T04:10:25.547Z,72590.41
2023-03-24T04:11:29.178Z,72592.41
2023-03-24T04:12:30.845Z,72594.41
2023-03-24T04:13:31.506Z,72590.41
2023-03-24T04:14:48.157Z,72594.41
2023-03-24T04:15:49.638Z,72592.41
2023-03-24T04:17:05.253Z,72590.41
2023-03-24T04:18:13.258Z,72592.41
2023-03-24T04:19:17.375Z,72594.41
2023-03-24T04:20:02.196Z,72590.41
2023-03-24T04:20:46.786Z,72594.41
2023-03-24T04:21:36.599Z,72594.41
2023-03-24T04:22:24.226Z,72592.41
2023-03-24T04:23:14.699Z,72600.41
2023-03-24T04:23:55.586Z,72602.38
2023-03-24T04:24:45.033Z,72614.38
2023-03-24T04:25:29.164Z,72602.38
2023-03-24T04:26:10.646Z,72610.38
2023-03-24T04:26:55.476Z,72606.38
2023-03-24T04:27:38.725Z,72608.38
2023-03-24T04:28:21.400Z,72618.34
2023-03-24T04:29:05.325Z,72610.38
2023-03-24T04:29:42.692Z,72610.38
2023-03-24T04:30:23.526Z,72618.34
2023-03-24T04:31:01.563Z,72618.34
2023-03-24T04:31:38.105Z,72618.34
2023-03-24T04:32:19.772Z,72614.38
2023-03-24T04:32:58.582Z,72614.38
2023-03-24T04:33:42.064Z,72614.38
2023-03-24T04:34:20.948Z,72614.38
2023-03-24T04:35:01.636Z,72612.38
2023-03-24T04:36:07.029Z,72616.38
2023-03-24T04:36:56.770Z,72614.38
2023-03-24T04:37:33.520Z,72614.38
2023-03-24T04:38:17.403Z,72618.34
2023-03-24T04:38:55.285Z,72618.34
2023-03-24T04:39:48.690Z,72610.38
2023-03-24T04:40:23.045Z,72614.38
2023-03-24T04:40:56.142Z,72610.38
2023-03-24T04:41:32.773Z,72606.38
2023-03-24T04:42:27.184Z,72606.38
2023-03-24T04:43:04.260Z,72612.38
2023-03-24T04:43:37.619Z,72610.38
2023-03-24T04:44:13.343Z,72612.38
2023-03-24T04:45:05.958Z,72610.38
2023-03-24T04:45:41.988Z,72610.38
2023-03-24T04:46:33.581Z,72616.38
2023-03-24T04:47:15.774Z,72612.38
2023-03-24T04:48:04.783Z,72612.38
2023-03-24T04:48:52.222Z,72614.38
2023-03-24T04:49:29.947Z,72614.38
2023-03-24T04:50:03.558Z,72618.34
2023-03-24T04:50:43.220Z,72614.38
2023-03-24T04:51:21.473Z,72614.38
2023-03-24T04:52:04.019Z,72614.38
2023-03-24T04:52:41.971Z,72618.34
2023-03-24T04:53:15.862Z,72614.38
2023-03-24T04:53:49.111Z,72616.38
2023-03-24T04:54:25.662Z,72614.38
2023-03-24T04:55:25.247Z,72614.38
2023-03-24T04:56:09.161Z,72610.38
2023-03-24T04:57:02.116Z,72614.38
2023-03-24T04:58:00.750Z,72614.38
2023-03-24T04:58:33.300Z,72614.38
2023-03-24T04:59:07.419Z,72612.38
2023-03-24T04:59:43.583Z,72610.38
2023-03-24T05:00:16.643Z,72614.38
2023-03-24T05:00:49.500Z,72612.38
2023-03-24T05:01:22.056Z,72610.38
2023-03-24T05:02:16.982Z,72608.38
2023-03-24T05:03:01.204Z,72608.38
2023-03-24T05:03:38.295Z,72606.38
2023-03-24T05:04:13.725Z,72608.38
2023-03-24T05:04:46.148Z,72608.38
2023-03-24T05:05:35.362Z,72616.38
2023-03-24T05:06:10.782Z,72610.38
2023-03-24T05:06:43.180Z,72610.38
2023-03-24T05:07:18.374Z,72616.38
2023-03-24T05:07:54.815Z,72614.38
2023-03-24T05:08:27.860Z,72614.38
2023-03-24T05:09:04.841Z,72610.38
2023-03-24T05:09:37.559Z,72614.38
2023-03-24T05:10:10.928Z,72616.38
2023-03-24T05:10:51.961Z,72610.38
2023-03-24T05:11:24.318Z,72610.38
2023-03-24T05:12:09.190Z,72610.38
2023-03-24T05:13:07.271Z,72610.38
2023-03-24T05:13:55.538Z,72612.38
2023-03-24T05:14:28.080Z,72610.38
2023-03-24T05:15:01.355Z,72604.38
2023-03-24T05:15:36.961Z,72604.38
2023-03-24T05:16:32.166Z,72606.38
2023-03-24T05:17:11.304Z,72606.38
2023-03-24T05:17:44.792Z,72604.38
2023-03-24T05:18:17.434Z,72602.38
2023-03-24T05:18:52.735Z,72598.41
2023-03-24T05:19:25.069Z,72598.41
2023-03-24T05:19:57.434Z,72584.44
2023-03-24T05:20:32.626Z,72578.44
2023-03-24T05:21:15.163Z,72570.47
2023-03-24T05:21:50.278Z,72566.47
2023-03-24T05:22:22.715Z,72562.47
2023-03-24T05:22:56.846Z,72572.44
2023-03-24T05:23:33.362Z,72570.47
2023-03-24T05:24:06.056Z,72582.44
2023-03-24T05:24:40.834Z,72590.41
2023-03-24T05:25:16.164Z,72586.44
2023-03-24T05:25:48.542Z,72590.41
2023-03-24T05:26:24.764Z,72582.44
2023-03-24T05:27:09.929Z,72578.44
2023-03-24T05:27:42.463Z,72576.44
2023-03-24T05:28:32.267Z,72574.44
2023-03-24T05:29:05.174Z,72574.44
2023-03-24T05:29:37.726Z,72570.47
2023-03-24T05:30:14.346Z,72572.44
2023-03-24T05:30:48.458Z,72566.47
2023-03-24T05:31:38.217Z,72570.47
2023-03-24T05:32:17.053Z,72566.47
2023-03-24T05:32:49.453Z,72568.47
2023-03-24T05:33:22.114Z,72572.44
2023-03-24T05:33:57.236Z,72566.47
2023-03-24T05:34:33.775Z,72570.47
2023-03-24T05:35:15.677Z,72574.44
2023-03-24T05:35:51.448Z,72570.47
2023-03-24T05:36:24.011Z,72568.47
2023-03-24T05:37:00.853Z,72568.47
2023-03-24T05:37:36.498Z,72574.44
2023-03-24T05:38:09.759Z,72574.44
2023-03-24T05:38:44.430Z,72578.44
2023-03-24T05:39:19.533Z,72572.44
2023-03-24T05:40:01.786Z,72576.44
2023-03-24T05:41:00.524Z,72574.44
2023-03-24T05:41:38.588Z,72574.44
2023-03-24T05:42:11.057Z,72574.44
2023-03-24T05:42:46.294Z,72576.44
2023-03-24T05:43:20.044Z,72576.44
2023-03-24T05:44:06.013Z,72574.44
2023-03-24T05:44:40.974Z,72574.44
2023-03-24T05:45:19.013Z,72574.44
2023-03-24T05:45:56.380Z,72572.44
2023-03-24T05:46:35.189Z,72574.44
2023-03-24T05:47:09.815Z,72574.44
2023-03-24T05:47:44.976Z,72572.44
2023-03-24T05:48:17.414Z,72574.44
2023-03-24T05:49:08.737Z,72572.44
2023-03-24T05:49:45.828Z,72570.47
2023-03-24T05:50:18.363Z,72570.47
2023-03-24T05:50:54.839Z,72574.44
2023-03-24T05:51:30.478Z,72576.44
2023-03-24T05:52:09.362Z,72578.44
2023-03-24T05:52:46.681Z,72572.44
2023-03-24T05:53:47.984Z,72578.44
2023-03-24T05:54:25.957Z,72578.44
2023-03-24T05:55:07.753Z,72578.44
2023-03-24T05:55:40.466Z,72582.44
2023-03-24T05:56:34.329Z,72578.44
2023-03-24T05:57:30.671Z,72586.44
2023-03-24T05:58:24.373Z,72582.44
2023-03-24T05:58:58.439Z,72586.44
2023-03-24T05:59:47.478Z,72586.44
2023-03-24T06:00:42.323Z,72586.44
2023-03-24T06:01:25.531Z,72588.41
2023-03-24T06:02:05.170Z,72590.41
2023-03-24T06:02:50.088Z,72590.41
2023-03-24T06:03:54.706Z,72588.41
2023-03-24T06:04:30.742Z,72588.41
2023-03-24T06:05:10.118Z,72590.41
2023-03-24T06:05:46.337Z,72594.41
2023-03-24T06:06:19.530Z,72598.41
2023-03-24T06:06:51.925Z,72594.41
2023-03-24T06:07:32.407Z,72594.41
2023-03-24T06:08:05.369Z,72594.41
2023-03-24T06:08:45.206Z,72598.41
2023-03-24T06:09:18.642Z,72598.41
2023-03-24T06:09:52.821Z,72598.41
2023-03-24T06:10:30.564Z,72598.41
2023-03-24T06:11:04.716Z,72602.38
2023-03-24T06:11:42.456Z,72602.38
2023-03-24T06:12:19.243Z,72602.38
2023-03-24T06:13:09.876Z,72606.38
2023-03-24T06:13:47.958Z,72606.38
2023-03-24T06:14:20.791Z,72608.38
2023-03-24T06:15:09.681Z,72608.38
2023-03-24T06:15:47.001Z,72608.38
2023-03-24T06:16:38.907Z,72606.38
2023-03-24T06:17:16.021Z,72614.38
2023-03-24T06:17:54.947Z,72610.38
2023-03-24T06:18:53.283Z,72606.38
2023-03-24T06:19:48.933Z,72604.38
2023-03-24T06:20:56.850Z,72602.38
2023-03-24T06:21:35.454Z,72606.38
2023-03-24T06:22:07.907Z,72612.38
2023-03-24T06:22:47.920Z,72610.38
2023-03-24T06:23:26.038Z,72604.38
2023-03-24T06:24:18.313Z,72606.38
2023-03-24T06:24:50.700Z,72608.38
2023-03-24T06:25:27.423Z,72606.38
2023-03-24T06:26:19.227Z,72608.38
2023-03-24T06:27:02.598Z,72610.38
2023-03-24T06:27:38.369Z,72602.38
2023-03-24T06:28:12.470Z,72610.38
2023-03-24T06:28:48.242Z,72610.38
2023-03-24T06:29:23.622Z,72610.38
2023-03-24T06:29:57.261Z,72610.38
2023-03-24T06:30:35.161Z,72614.38
2023-03-24T06:31:15.047Z,72612.38
2023-03-24T06:31:49.134Z,72614.38
2023-03-24T06:32:24.955Z,72610.38
2023-03-24T06:32:57.548Z,72614.38
2023-03-24T06:33:32.618Z,72614.38
2023-03-24T06:34:05.915Z,72614.38
2023-03-24T06:34:41.330Z,72616.38
2023-03-24T06:35:33.564Z,72614.38
2023-03-24T06:36:15.282Z,72620.34
2023-03-24T06:36:48.563Z,72618.34
2023-03-24T06:37:24.058Z,72618.34
2023-03-24T06:37:59.458Z,72614.38
2023-03-24T06:38:32.319Z,72616.38
2023-03-24T06:39:06.306Z,72624.34
2023-03-24T06:39:41.591Z,72626.34
2023-03-24T06:40:17.827Z,72622.34
2023-03-24T06:41:04.261Z,72622.34
2023-03-24T06:41:37.268Z,72624.34
2023-03-24T06:42:09.774Z,72630.34
2023-03-24T06:42:45.119Z,72628.34
2023-03-24T06:43:17.579Z,72630.34
2023-03-24T06:43:50.037Z,72634.31
2023-03-24T06:44:25.212Z,72634.31
2023-03-24T06:44:57.775Z,72630.34
2023-03-24T06:45:34.282Z,72638.31
2023-03-24T06:46:11.315Z,72638.31
2023-03-24T06:46:48.591Z,72638.31
2023-03-24T06:47:21.243Z,72646.31
2023-03-24T06:47:57.774Z,72638.31
2023-03-24T06:48:30.754Z,72638.31
2023-03-24T06:49:13.003Z,72640.31
2023-03-24T06:49:45.564Z,72646.31
2023-03-24T06:50:18.274Z,72644.31
2023-03-24T06:50:55.131Z,72640.31
2023-03-24T06:51:27.946Z,72644.31
2023-03-24T06:52:00.578Z,72640.31
2023-03-24T06:52:36.449Z,72638.31
2023-03-24T06:53:09.566Z,72642.31
2023-03-24T06:53:45.965Z,72638.31
2023-03-24T06:54:19.397Z,72642.31
2023-03-24T06:54:52.818Z,72642.31
2023-03-24T06:55:28.201Z,72640.31
2023-03-24T06:56:00.627Z,72646.31
2023-03-24T06:56:39.508Z,72644.31
2023-03-24T06:57:15.053Z,72646.31
2023-03-24T06:58:22.855Z,72646.31
2023-03-24T06:59:09.296Z,72644.31
2023-03-24T06:59:44.990Z,72646.31
2023-03-24T07:00:18.353Z,72648.28
2023-03-24T07:01:15.015Z,72646.31
2023-03-24T07:02:12.747Z,72650.28
2023-03-24T07:02:50.406Z,72648.28
2023-03-24T07:03:23.662Z,72654.28
2023-03-24T07:04:21.513Z,72650.28
2023-03-24T07:05:06.202Z,72658.28
2023-03-24T07:05:49.209Z,72658.28
2023-03-24T07:06:23.099Z,72660.28
2023-03-24T07:07:27.948Z,72662.28
2023-03-24T07:08:42.657Z,72664.25
2023-03-24T07:09:15.248Z,72670.25
2023-03-24T07:09:50.551Z,72668.25
2023-03-24T07:10:22.952Z,72670.25
2023-03-24T07:10:56.220Z,72666.25
2023-03-24T07:11:31.789Z,72674.25
2023-03-24T07:12:07.310Z,72670.25
2023-03-24T07:12:44.267Z,72666.25
2023-03-24T07:13:16.660Z,72674.25
2023-03-24T07:13:49.278Z,72670.25
2023-03-24T07:14:26.425Z,72668.25
2023-03-24T07:15:00.151Z,72668.25
2023-03-24T07:15:32.803Z,72670.25
2023-03-24T07:16:08.873Z,72674.25
2023-03-24T07:16:46.822Z,72670.25
2023-03-24T07:17:40.653Z,72676.25
2023-03-24T07:18:33.265Z,72676.25
2023-03-24T07:19:12.552Z,72672.25
2023-03-24T07:19:46.846Z,72674.25
2023-03-24T07:20:48.069Z,72674.25
2023-03-24T07:21:25.239Z,72670.25
2023-03-24T07:21:57.641Z,72670.25
2023-03-24T07:22:45.896Z,72674.25
2023-03-24T07:23:36.402Z,72668.25
2023-03-24T07:24:11.570Z,72672.25
2023-03-24T07:24:58.338Z,72670.25
2023-03-24T07:25:49.055Z,72676.25
2023-03-24T07:26:53.522Z,72670.25
2023-03-24T07:27:32.892Z,72670.25
2023-03-24T07:28:05.530Z,72676.25
2023-03-24T07:28:40.510Z,72676.25
2023-03-24T07:29:13.530Z,72676.25
2023-03-24T07:30:30.008Z,72678.22
2023-03-24T07:31:11.146Z,72682.22
2023-03-24T07:31:50.627Z,72682.22
2023-03-24T07:32:23.031Z,72676.25
2023-03-24T07:33:02.260Z,72680.22
2023-03-24T07:33:34.747Z,72680.22
2023-03-24T07:34:07.197Z,72674.25
2023-03-24T07:34:46.013Z,72676.25
2023-03-24T07:35:19.076Z,72678.22
2023-03-24T07:35:55.238Z,72674.25
2023-03-24T07:36:30.222Z,72670.25
2023-03-24T07:37:03.811Z,72676.25
2023-03-24T07:37:36.466Z,72670.25
2023-03-24T07:38:12.091Z,72672.25
2023-03-24T07:38:44.628Z,72672.25
2023-03-24T07:39:23.611Z,72674.25
2023-03-24T07:39:59.041Z,72666.25
2023-03-24T07:40:31.968Z,72672.25
2023-03-24T07:41:06.997Z,72670.25